Time;durP1;ratioP1;P1;durP2;ratioP2;P2;SDS_P1;SDS_P2;PMS_P1;PMS_P2;Temp;Humidity;BMP_temperature;BMP_pressure;BME280_temperature;BME280_humidity;BME280_pressure;Samples;Min_cycle;Max_cycle;Signal;HPM_P1;HPM_P2
2021/06/02 00:00:11;;;;;;;1.73;1.63;;;;;;;20.09;69.02;97377.59;5014351;28;20202;-68
2021/06/02 00:03:04;;;;;;;1.60;1.50;;;;;;;20.10;69.35;97377.66;5018061;28;20777;-66
2021/06/02 00:05:31;;;;;;;1.60;1.50;;;;;;;20.11;69.11;97373.41;4998647;28;20218;-69
2021/06/02 00:07:58;;;;;;;1.57;1.47;;;;;;;20.11;69.11;97365.75;5019568;28;20642;-68
2021/06/02 00:10:25;;;;;;;1.70;1.60;;;;;;;20.11;69.06;97360.66;5004172;28;20241;-67
2021/06/02 00:12:51;;;;;;;1.67;1.57;;;;;;;18.91;68.88;97163.75;5021229;28;20435;-68
2021/06/02 00:15:21;;;;;;;1.60;1.50;;;;;;;20.12;69.08;97367.50;5008933;28;20209;-67
2021/06/02 00:17:51;;;;;;;1.60;1.50;;;;;;;20.12;69.03;97373.47;5000404;28;20224;-67
2021/06/02 00:20:17;;;;;;;1.77;1.67;;;;;;;20.13;68.97;97369.28;5014634;28;20229;-68
2021/06/02 00:22:45;;;;;;;1.67;1.57;;;;;;;16.33;68.71;96767.28;5003984;28;20650;-68
2021/06/02 00:25:13;;;;;;;1.70;1.60;;;;;;;20.05;68.91;97358.78;5000934;28;20578;-67
2021/06/02 00:27:40;;;;;;;1.80;1.70;;;;;;;19.94;69.21;97406.03;5021335;28;20251;-68
2021/06/02 00:30:09;;;;;;;1.60;1.50;;;;;;;19.82;68.97;97316.38;5002523;28;20260;-68
2021/06/02 00:32:35;;;;;;;2.00;1.80;;;;;;;19.66;68.90;97298.84;4989443;28;20319;-68
2021/06/02 00:35:03;;;;;;;1.57;1.40;;;;;;;20.13;69.03;97371.81;5001914;28;20248;-67
2021/06/02 00:37:30;;;;;;;1.80;1.70;;;;;;;19.83;68.92;97318.09;5013947;28;20230;-67
2021/06/02 00:39:57;;;;;;;1.77;1.67;;;;;;;20.14;69.07;97360.78;4987645;28;20630;-67
2021/06/02 00:42:31;;;;;;;2.13;1.60;;;;;;;20.14;68.87;97361.69;5012680;28;20228;-69
2021/06/02 00:44:58;;;;;;;1.60;1.50;;;;;;;20.14;69.02;97360.78;5000233;28;20288;-68
2021/06/02 00:47:24;;;;;;;1.70;1.60;;;;;;;19.56;69.14;97261.09;5022407;28;20247;-68
2021/06/02 00:49:51;;;;;;;1.40;1.30;;;;;;;19.79;68.81;97298.41;5022709;28;20644;-68
2021/06/02 00:52:18;;;;;;;1.60;1.50;;;;;;;20.14;68.95;97354.03;5022216;28;20643;-68
2021/06/02 00:54:44;;;;;;;1.60;1.50;;;;;;;19.69;68.94;97273.44;5022258;28;20656;-68
2021/06/02 00:57:18;;;;;;;1.60;1.50;;;;;;;19.98;69.06;97324.56;5022410;28;20665;-68
2021/06/02 01:00:05;;;;;;;1.63;1.53;;;;;;;20.15;68.93;97342.09;5019612;28;20317;-69
2021/06/02 01:02:34;;;;;;;1.90;1.80;;;;;;;20.15;68.79;97352.31;4985804;28;20545;-67
2021/06/02 01:05:01;;;;;;;1.50;1.40;;;;;;;19.68;69.01;97261.50;5006955;28;20197;-69
2021/06/02 01:07:27;;;;;;;1.60;1.50;;;;;;;19.95;68.71;97310.81;4987538;28;20625;-68
2021/06/02 01:09:58;;;;;;;1.77;1.50;;;;;;;20.14;68.95;97338.72;5019780;28;20640;-68
2021/06/02 01:12:26;;;;;;;1.60;1.50;;;;;;;16.46;68.70;96712.88;5006690;28;20255;-68
2021/06/02 01:14:53;;;;;;;1.73;1.60;;;;;;;18.89;68.66;97128.06;5023844;28;20617;-68
2021/06/02 01:17:22;;;;;;;1.50;1.40;;;;;;;19.86;68.72;97296.13;5006391;28;20272;-68
2021/06/02 01:19:49;;;;;;;1.63;1.53;;;;;;;19.37;68.93;97208.69;4995416;28;20252;-68
2021/06/02 01:22:15;;;;;;;1.57;1.47;;;;;;;20.16;68.86;97346.41;5003802;28;20992;-68
2021/06/02 01:24:42;;;;;;;1.63;1.53;;;;;;;20.16;68.94;97343.88;5000205;28;20224;-68
2021/06/02 01:27:11;;;;;;;1.80;1.70;;;;;;;19.70;68.86;97366.94;5002815;28;20209;-68
2021/06/02 01:29:41;;;;;;;1.70;1.60;;;;;;;19.82;68.55;97296.84;5021441;28;20198;-68
2021/06/02 01:32:40;;;;;;;1.67;1.57;;;;;;;20.15;68.90;97360.84;5014138;28;20323;-68
2021/06/02 01:35:35;;;;;;;1.60;1.50;;;;;;;19.98;68.90;97333.03;5007448;28;20209;-69
2021/06/02 01:38:36;;;;;;;1.67;1.57;;;;;;;20.16;68.82;97360.00;5018318;28;20291;-68
2021/06/02 01:41:26;;;;;;;1.50;1.40;;;;;;;20.15;68.73;97355.75;5021811;28;20229;-68
2021/06/02 01:44:30;;;;;;;1.50;1.40;;;;;;;20.15;68.97;97367.63;5022373;28;20282;-68
2021/06/02 01:47:15;;;;;;;1.80;1.70;;;;;;;20.16;68.84;97359.16;5023654;28;20233;-69
2021/06/02 01:50:07;;;;;;;2.33;1.40;;;;;;;20.15;68.79;97357.41;5019799;28;20251;-68
2021/06/02 01:52:49;;;;;;;1.60;1.50;;;;;;;20.15;68.91;97359.97;4992480;28;20313;-68
2021/06/02 01:55:38;;;;;;;1.30;1.30;;;;;;;20.16;68.98;97364.28;5025459;28;20208;-68
2021/06/02 01:58:42;;;;;;;1.70;1.60;;;;;;;20.15;68.86;97359.97;5020226;28;20281;-68
2021/06/02 02:01:46;;;;;;;1.83;1.70;;;;;;;20.14;68.87;97359.13;5022285;28;20244;-68
2021/06/02 02:04:34;;;;;;;1.80;1.70;;;;;;;20.15;68.78;97354.88;5024434;28;20320;-67
2021/06/02 02:07:46;;;;;;;1.60;1.50;;;;;;;20.15;68.93;97354.88;5026821;28;20289;-68
2021/06/02 02:10:34;;;;;;;2.47;1.60;;;;;;;20.14;68.99;97356.56;4999314;28;20715;-68
2021/06/02 02:13:38;;;;;;;1.63;1.53;;;;;;;20.14;68.80;97354.03;5023270;28;20222;-68
2021/06/02 02:16:31;;;;;;;1.70;1.60;;;;;;;20.15;68.96;97354.88;5023539;28;20202;-68
2021/06/02 02:19:13;;;;;;;1.63;1.53;;;;;;;20.15;68.90;97352.31;4993808;28;20257;-68
2021/06/02 02:21:42;;;;;;;1.90;1.80;;;;;;;20.13;68.81;97352.25;5023919;28;20316;-68
2021/06/02 02:24:12;;;;;;;1.57;1.47;;;;;;;20.13;69.09;97354.81;5028623;28;20289;-68
2021/06/02 02:26:57;;;;;;;1.80;1.70;;;;;;;20.13;68.92;97347.16;5021611;28;20202;-68
2021/06/02 02:29:44;;;;;;;1.63;1.53;;;;;;;20.13;68.92;97359.91;5024135;28;20691;-68
2021/06/02 02:32:36;;;;;;;1.50;1.40;;;;;;;20.13;68.81;97359.91;5020459;28;20260;-68
2021/06/02 02:35:30;;;;;;;1.97;1.87;;;;;;;20.13;68.93;97359.91;5021241;28;20744;-68
2021/06/02 02:38:17;;;;;;;1.60;1.50;;;;;;;20.14;68.97;97365.91;5012724;28;20340;-68
2021/06/02 02:40:52;;;;;;;1.53;1.43;;;;;;;19.40;68.97;97247.00;5027149;28;20669;-68
2021/06/02 02:43:24;;;;;;;1.70;1.60;;;;;;;19.83;68.89;97321.50;4998048;28;20229;-68
2021/06/02 02:46:16;;;;;;;1.70;1.60;;;;;;;20.13;68.98;97370.13;4986750;28;20252;-69
2021/06/02 02:49:07;;;;;;;1.50;1.40;;;;;;;20.14;68.91;97374.44;5010539;28;20212;-68
2021/06/02 02:51:55;;;;;;;1.60;1.50;;;;;;;20.13;68.87;97370.13;5024814;28;20213;-67
2021/06/02 02:54:30;;;;;;;1.63;1.53;;;;;;;20.14;68.99;97373.56;5023885;28;20293;-68
2021/06/02 02:57:14;;;;;;;1.70;1.60;;;;;;;20.14;68.88;97365.91;4993377;28;20745;-68
2021/06/02 03:00:04;;;;;;;1.70;1.60;;;;;;;19.63;68.65;97288.53;5002522;28;20222;-68
2021/06/02 03:03:00;;;;;;;1.60;1.50;;;;;;;20.14;68.83;97381.22;5022802;28;20266;-67
2021/06/02 03:05:28;;;;;;;1.70;1.60;;;;;;;20.13;68.95;97371.81;4967134;28;20235;-68
2021/06/02 03:08:07;;;;;;;1.70;1.60;;;;;;;20.13;69.05;97365.03;5005568;28;20208;-68
2021/06/02 03:10:35;;;;;;;1.90;1.80;;;;;;;19.84;69.09;97322.38;5001699;28;20256;-68
2021/06/02 03:13:05;;;;;;;1.57;1.47;;;;;;;20.13;69.07;97372.69;5004540;28;20340;-68
2021/06/02 03:15:33;;;;;;;1.50;1.40;;;;;;;20.13;68.93;97375.22;4981536;28;20672;-68
2021/06/02 03:18:06;;;;;;;1.67;1.57;;;;;;;19.72;69.29;97306.69;5006542;28;20559;-68
2021/06/02 03:20:35;;;;;;;1.70;1.60;;;;;;;19.65;68.96;97366.78;5002220;28;20199;-68
2021/06/02 03:23:09;;;;;;;1.60;1.50;;;;;;;20.14;68.97;97371.88;4989015;28;20313;-68
2021/06/02 03:25:48;;;;;;;1.80;1.70;;;;;;;20.14;68.86;97361.69;4989762;28;20296;-67
2021/06/02 03:28:23;;;;;;;1.57;1.47;;;;;;;20.07;68.85;97361.41;4986182;28;20285;-68
2021/06/02 03:30:56;;;;;;;1.60;1.50;;;;;;;19.57;68.80;97273.91;5004627;28;20287;-67
2021/06/02 03:33:57;;;;;;;1.60;1.50;;;;;;;20.15;68.87;97378.69;4995748;28;20263;-67
2021/06/02 03:36:41;;;;;;;1.60;1.50;;;;;;;20.15;68.82;97381.25;5019595;28;20249;-69
2021/06/02 03:39:33;;;;;;;1.70;1.60;;;;;;;20.15;69.12;97391.47;5020994;28;20268;-68
2021/06/02 03:42:20;;;;;;;1.80;1.70;;;;;;;20.16;68.95;97387.25;5020659;28;20261;-68
2021/06/02 03:45:02;;;;;;;1.80;1.70;;;;;;;20.14;68.67;97392.28;4996254;28;20197;-68
2021/06/02 03:47:38;;;;;;;1.63;1.53;;;;;;;20.15;68.94;97394.00;5021199;28;20304;-68
2021/06/02 03:50:06;;;;;;;1.50;1.40;;;;;;;20.15;68.92;97393.13;5007362;28;20286;-68
2021/06/02 03:53:14;;;;;;;1.60;1.50;;;;;;;20.15;69.04;97398.25;5025969;28;20312;-68
2021/06/02 03:55:46;;;;;;;1.50;1.40;;;;;;;20.15;68.93;97398.25;4975700;28;20232;-67
2021/06/02 03:58:36;;;;;;;1.50;1.40;;;;;;;20.14;68.76;97402.50;5025026;28;20198;-68
2021/06/02 04:01:16;;;;;;;1.53;1.43;;;;;;;20.14;68.90;97396.50;5023351;28;20940;-66
2021/06/02 04:04:03;;;;;;;1.60;1.50;;;;;;;20.16;68.97;97397.44;4983329;28;20663;-68
2021/06/02 04:06:55;;;;;;;1.70;1.60;;;;;;;20.15;68.84;97400.78;5006985;28;20757;-68
2021/06/02 04:09:26;;;;;;;1.83;1.73;;;;;;;20.15;68.91;97395.69;5023199;28;20637;-68
2021/06/02 04:12:17;;;;;;;1.60;1.50;;;;;;;20.14;68.91;97405.03;5023036;28;20222;-68
2021/06/02 04:14:58;;;;;;;1.60;1.50;;;;;;;20.15;68.73;97409.31;5009313;28;20209;-69
2021/06/02 04:17:26;;;;;;;1.83;1.73;;;;;;;20.15;68.67;97400.78;5022060;28;20229;-68
2021/06/02 04:19:53;;;;;;;1.70;1.60;;;;;;;19.03;68.86;97212.53;5023363;28;20305;-68
2021/06/02 04:22:21;;;;;;;1.60;1.50;;;;;;;20.13;68.99;97405.84;4980632;28;20364;-68
2021/06/02 04:24:48;;;;;;;1.60;1.50;;;;;;;20.14;68.89;97407.59;5023477;28;20663;-68
2021/06/02 04:27:15;;;;;;;1.60;1.50;;;;;;;19.73;68.66;97342.44;5022898;28;20289;-68
2021/06/02 04:29:49;;;;;;;1.63;1.53;;;;;;;17.15;68.56;96984.41;4992468;28;20576;-68
2021/06/02 04:32:16;;;;;;;1.67;1.57;;;;;;;18.36;68.32;97150.78;5024005;28;20320;-68
2021/06/02 04:34:43;;;;;;;1.77;1.67;;;;;;;20.15;68.70;97419.53;5001781;28;20657;-67
2021/06/02 04:37:10;;;;;;;1.70;1.60;;;;;;;19.73;68.53;97347.53;5005872;28;20239;-68
2021/06/02 04:39:38;;;;;;;1.70;1.60;;;;;;;19.90;68.82;97376.16;5008031;28;20224;-68
2021/06/02 04:42:06;;;;;;;1.80;1.70;;;;;;;19.71;68.74;97343.19;5021687;28;20316;-68
2021/06/02 04:44:34;;;;;;;1.80;1.70;;;;;;;19.86;68.63;97369.19;5004828;28;20255;-68
2021/06/02 04:47:01;;;;;;;1.63;1.53;;;;;;;17.46;68.66;97048.25;4979553;28;20297;-69
2021/06/02 04:49:34;;;;;;;1.87;1.77;;;;;;;19.87;68.66;97373.50;5014282;28;20730;-68
2021/06/02 04:52:23;;;;;;;1.73;1.63;;;;;;;20.16;68.69;97430.63;5019888;28;20755;-68
2021/06/02 04:54:58;;;;;;;1.63;1.53;;;;;;;20.16;68.69;97433.16;5016320;28;20212;-69
2021/06/02 04:57:50;;;;;;;1.70;1.60;;;;;;;20.16;68.78;97434.00;5018272;28;20313;-69
2021/06/02 05:00:40;;;;;;;1.50;1.40;;;;;;;20.18;68.50;97434.06;5005047;28;20317;-69
2021/06/02 05:03:19;;;;;;;1.70;1.60;;;;;;;20.16;68.80;97441.66;5002349;28;20790;-67
2021/06/02 05:06:14;;;;;;;1.57;1.47;;;;;;;20.18;68.59;97439.16;5019119;28;20345;-68
2021/06/02 05:08:47;;;;;;;2.00;1.90;;;;;;;20.17;68.85;97443.41;5002706;28;20285;-68
2021/06/02 05:11:29;;;;;;;1.70;1.60;;;;;;;20.17;68.63;97445.97;5023256;28;20253;-67
2021/06/02 05:14:34;;;;;;;1.47;1.37;;;;;;;20.18;68.71;97444.25;5021083;28;20224;-68
2021/06/02 05:17:28;;;;;;;1.60;1.50;;;;;;;20.18;68.66;97444.25;5016881;28;20206;-67
2021/06/02 05:20:25;;;;;;;1.73;1.60;;;;;;;20.18;68.53;97463.00;4997855;28;20735;-68
2021/06/02 05:23:22;;;;;;;4.93;2.20;;;;;;;20.18;68.38;97454.47;5018900;28;20959;-67
2021/06/02 05:26:10;;;;;;;2.10;1.90;;;;;;;20.18;68.27;97450.25;5017469;28;20279;-67
2021/06/02 05:29:02;;;;;;;2.20;1.83;;;;;;;20.18;68.43;97459.56;5021175;28;20301;-68
2021/06/02 05:31:56;;;;;;;1.70;1.60;;;;;;;20.18;68.31;97457.03;5022323;28;20632;-67
2021/06/02 05:34:42;;;;;;;1.77;1.67;;;;;;;20.16;68.39;97459.53;5025722;28;20225;-68
2021/06/02 05:37:31;;;;;;;1.93;1.70;;;;;;;20.14;68.65;97468.84;5025405;28;20686;-69
2021/06/02 05:40:25;;;;;;;2.00;1.90;;;;;;;20.11;68.63;97462.72;5016628;28;20249;-67
2021/06/02 05:42:55;;;;;;;1.80;1.70;;;;;;;20.08;68.87;97472.81;5025329;28;20684;-69
2021/06/02 05:45:58;;;;;;;1.70;1.60;;;;;;;20.05;69.17;97465.94;5027520;28;20233;-68
2021/06/02 05:49:02;;;;;;;1.70;1.60;;;;;;;20.06;68.98;97462.56;5005366;28;20200;-69
2021/06/02 05:51:50;;;;;;;2.23;1.70;;;;;;;20.06;68.95;97467.66;5028782;28;20316;-66
2021/06/02 05:54:43;;;;;;;1.60;1.50;;;;;;;20.06;68.99;97462.56;5028255;28;20205;-68
2021/06/02 05:57:41;;;;;;;2.20;2.00;;;;;;;20.09;69.02;97466.88;5025532;28;20226;-68
2021/06/02 06:00:26;;;;;;;1.93;1.83;;;;;;;20.07;68.81;97464.28;5002986;28;20228;-69
2021/06/02 06:03:03;;;;;;;2.00;1.80;;;;;;;20.07;68.83;97479.59;5025058;28;20217;-68
2021/06/02 06:06:07;;;;;;;1.93;1.80;;;;;;;20.07;69.04;97476.19;5014813;28;20259;-67
2021/06/02 06:08:59;;;;;;;1.80;1.70;;;;;;;20.06;68.99;97470.22;5159818;22;20277;-67
2021/06/02 06:11:46;;;;;;;4.93;1.77;;;;;;;20.07;68.88;97476.19;5047836;28;20222;-65
2021/06/02 06:14:15;;;;;;;1.87;1.77;;;;;;;20.05;69.26;97477.81;5037403;28;20204;-65
2021/06/02 06:17:07;;;;;;;1.83;1.73;;;;;;;20.05;69.23;97462.50;5065801;28;20295;-65
2021/06/02 06:20:14;;;;;;;1.90;1.80;;;;;;;19.41;69.08;97363.41;5067874;28;20255;-65
2021/06/02 06:22:47;;;;;;;2.10;1.80;;;;;;;19.86;67.68;97435.50;5052560;28;20693;-65
2021/06/02 06:25:16;;;;;;;2.20;2.00;;;;;;;20.03;67.62;97465.00;5049352;28;20206;-66
2021/06/02 06:27:48;;;;;;;1.90;1.80;;;;;;;19.87;68.12;97442.34;5045953;28;20629;-65
2021/06/02 06:30:31;;;;;;;2.03;1.93;;;;;;;19.73;68.36;97420.59;5050558;28;20295;-65
2021/06/02 06:32:58;;;;;;;2.00;1.80;;;;;;;17.83;68.30;97086.94;5033225;28;20323;-66
2021/06/02 06:35:25;;;;;;;2.00;1.90;;;;;;;19.47;68.75;97373.81;5049937;28;20239;-63
2021/06/02 06:37:53;;;;;;;1.97;1.87;;;;;;;19.90;68.85;97447.56;5032139;28;20317;-65
2021/06/02 06:40:27;;;;;;;2.23;2.00;;;;;;;19.75;68.72;97422.38;5017320;28;20240;-65
2021/06/02 06:42:57;;;;;;;4.40;1.83;;;;;;;20.03;69.00;97477.75;5031851;28;20247;-65
2021/06/02 06:45:33;;;;;;;2.20;2.00;;;;;;;19.35;68.79;97352.13;5019516;28;20237;-65
2021/06/02 06:48:02;;;;;;;2.20;2.00;;;;;;;20.04;68.88;97469.28;5033360;28;20230;-65
2021/06/02 06:50:28;;;;;;;1.97;1.80;;;;;;;20.05;68.76;97467.59;5033339;28;20239;-65
2021/06/02 06:52:57;;;;;;;2.13;1.97;;;;;;;18.86;68.71;97262.88;5045254;28;20303;-65
2021/06/02 06:55:24;;;;;;;1.83;1.73;;;;;;;19.17;68.72;97315.78;5032962;28;20682;-65
2021/06/02 06:57:50;;;;;;;2.03;1.80;;;;;;;20.05;68.87;97480.38;5032405;28;20302;-65
2021/06/02 07:00:18;;;;;;;2.27;2.07;;;;;;;20.06;68.89;97492.28;5046774;28;20255;-64
2021/06/02 07:02:44;;;;;;;2.97;2.10;;;;;;;19.88;68.81;97444.94;5031863;28;20777;-65
2021/06/02 07:05:12;;;;;;;2.27;1.80;;;;;;;20.07;68.80;97484.69;5066686;28;20222;-64
2021/06/02 07:07:41;;;;;;;1.90;1.80;;;;;;;20.08;68.79;97483.03;5065643;28;20582;-65
2021/06/02 07:10:10;;;;;;;2.10;1.90;;;;;;;20.07;68.66;97477.03;5046990;28;20379;-64
2021/06/02 07:12:37;;;;;;;2.03;1.93;;;;;;;20.06;68.81;97479.53;5038872;28;20278;-65
2021/06/02 07:15:05;;;;;;;1.93;1.83;;;;;;;20.04;68.92;97468.44;5029880;28;20238;-65
2021/06/02 07:17:32;;;;;;;1.97;1.87;;;;;;;19.89;68.92;97450.91;5044885;28;20307;-65
2021/06/02 07:20:00;;;;;;;1.90;1.80;;;;;;;19.99;69.11;97474.22;5039672;28;21262;-65
2021/06/02 07:22:26;;;;;;;1.97;1.87;;;;;;;19.55;68.91;97389.38;5056549;28;20665;-64
2021/06/02 07:24:54;;;;;;;1.90;1.80;;;;;;;19.50;68.99;97378.13;5009904;28;20652;-65
2021/06/02 07:27:20;;;;;;;2.20;2.00;;;;;;;20.02;69.02;97468.38;5021955;28;20246;-65
2021/06/02 07:29:47;;;;;;;2.23;1.90;;;;;;;20.04;68.91;97465.88;5036173;28;20228;-65
2021/06/02 07:32:14;;;;;;;2.33;1.90;;;;;;;19.99;68.66;97458.06;5060160;28;20196;-65
2021/06/02 07:34:40;;;;;;;2.00;1.90;;;;;;;20.02;68.84;97458.19;5055606;28;20641;-65
2021/06/02 07:37:07;;;;;;;2.63;1.70;;;;;;;20.04;68.90;97465.88;5058854;28;20283;-66
2021/06/02 07:39:34;;;;;;;2.90;2.00;;;;;;;20.05;68.91;97467.59;5036988;28;20331;-64
2021/06/02 07:42:01;;;;;;;2.77;1.87;;;;;;;19.88;68.96;97442.41;5055157;28;20204;-65
2021/06/02 07:44:27;;;;;;;1.90;1.80;;;;;;;19.87;68.77;97440.66;5059665;28;20232;-66
2021/06/02 07:46:54;;;;;;;1.90;1.80;;;;;;;19.69;69.06;97401.78;5055967;28;20300;-65
2021/06/02 07:49:20;;;;;;;2.70;1.90;;;;;;;20.04;68.87;97468.44;5065024;28;20224;-66
2021/06/02 07:51:53;;;;;;;2.00;1.90;;;;;;;20.06;68.66;97480.41;5066060;28;20232;-66
2021/06/02 07:54:20;;;;;;;1.93;1.70;;;;;;;18.66;68.83;97235.88;5065011;28;20265;-65
2021/06/02 07:56:46;;;;;;;2.00;1.90;;;;;;;19.77;68.76;97423.31;5047245;28;20196;-65
2021/06/02 07:59:13;;;;;;;1.90;1.80;;;;;;;20.07;68.92;97479.59;5042855;28;20571;-65
2021/06/02 08:01:40;;;;;;;1.80;1.70;;;;;;;19.91;68.92;97455.25;5047642;28;20249;-65
2021/06/02 08:04:11;;;;;;;2.00;1.80;;;;;;;20.04;68.96;97483.75;5032441;28;20200;-66
2021/06/02 08:06:38;;;;;;;1.73;1.63;;;;;;;19.99;68.91;97474.22;5030441;28;20243;-66
2021/06/02 08:09:06;;;;;;;1.70;1.60;;;;;;;19.93;68.97;97468.91;5066268;28;21014;-66
2021/06/02 08:11:33;;;;;;;1.97;1.83;;;;;;;19.99;69.05;97475.94;5065467;28;20288;-66
2021/06/02 08:14:00;;;;;;;1.97;1.87;;;;;;;19.70;69.19;97429.03;5065025;28;20318;-66
2021/06/02 08:16:26;;;;;;;2.07;1.97;;;;;;;20.01;69.16;97474.28;5048445;28;20209;-64
2021/06/02 08:18:53;;;;;;;2.03;1.90;;;;;;;20.01;69.15;97468.31;5066179;28;20239;-65
2021/06/02 08:21:20;;;;;;;1.90;1.80;;;;;;;19.95;68.97;97457.09;5047210;28;20220;-65
2021/06/02 08:23:46;;;;;;;4.00;2.00;;;;;;;20.02;68.93;97468.38;5047923;28;20232;-65
2021/06/02 08:26:13;;;;;;;3.67;2.00;;;;;;;20.01;69.21;97458.13;5065471;28;20279;-65
2021/06/02 08:28:39;;;;;;;2.00;1.70;;;;;;;20.04;68.84;97471.84;5062836;28;20247;-66
2021/06/02 08:31:06;;;;;;;2.53;2.33;;;;;;;20.03;69.18;97477.75;5046252;28;20223;-66
2021/06/02 08:33:32;;;;;;;2.27;2.00;;;;;;;20.04;68.68;97476.94;5065321;28;20240;-67
2021/06/02 08:36:00;;;;;;;4.50;1.90;;;;;;;20.03;68.62;97472.66;5062625;28;20294;-65
2021/06/02 08:38:27;;;;;;;3.33;1.97;;;;;;;20.04;68.69;97481.19;5064895;28;20253;-66
2021/06/02 08:40:53;;;;;;;2.47;1.80;;;;;;;19.73;68.52;97420.59;5062493;28;20255;-66
2021/06/02 08:43:20;;;;;;;2.10;1.93;;;;;;;20.04;68.67;97476.94;5031507;28;20572;-65
2021/06/02 08:45:47;;;;;;;3.53;1.80;;;;;;;20.02;68.70;97474.34;5045488;28;20869;-65
2021/06/02 08:48:14;;;;;;;4.20;1.87;;;;;;;19.86;68.51;97454.22;5047560;28;20232;-66
2021/06/02 08:50:41;;;;;;;4.10;1.90;;;;;;;19.97;68.74;97469.91;5044321;28;20285;-65
2021/06/02 08:53:07;;;;;;;2.77;2.13;;;;;;;19.93;68.52;97465.50;5059416;28;20689;-65
2021/06/02 08:55:38;;;;;;;2.60;1.80;;;;;;;20.02;68.59;97480.25;5030331;28;20279;-65
2021/06/02 08:58:04;;;;;;;3.20;2.10;;;;;;;20.02;68.77;97493.00;5064812;28;20248;-65
2021/06/02 09:00:31;;;;;;;3.20;1.70;;;;;;;19.71;69.03;97423.09;5027617;28;20311;-65
2021/06/02 09:02:57;;;;;;;2.40;2.20;;;;;;;20.01;68.86;97484.47;5046406;28;20300;-65
2021/06/02 09:05:25;;;;;;;1.80;1.70;;;;;;;20.01;68.76;97487.03;5061067;28;20284;-65
2021/06/02 09:07:52;;;;;;;3.60;2.00;;;;;;;19.68;68.81;97427.22;5062737;28;20666;-65
2021/06/02 09:10:20;;;;;;;1.80;1.70;;;;;;;20.01;68.78;97492.13;5049006;28;20196;-65
2021/06/02 09:12:53;;;;;;;8.53;2.00;;;;;;;20.02;68.61;97482.81;5064033;28;20210;-66
2021/06/02 09:15:20;;;;;;;2.23;1.90;;;;;;;20.01;68.19;97481.09;5047165;28;20204;-65
2021/06/02 09:17:58;;;;;;;2.10;1.90;;;;;;;20.01;68.74;97483.63;5047953;28;20219;-65
2021/06/02 09:20:42;;;;;;;2.33;2.03;;;;;;;20.00;68.96;97482.75;5066859;28;20266;-66
2021/06/02 09:23:38;;;;;;;2.00;1.90;;;;;;;20.00;68.91;97485.31;5068919;28;20638;-66
2021/06/02 09:26:13;;;;;;;2.23;2.03;;;;;;;20.00;68.90;97485.31;5048739;28;20219;-67
2021/06/02 09:28:58;;;;;;;2.00;1.80;;;;;;;19.98;69.00;97489.47;5064358;28;20303;-66
2021/06/02 09:31:33;;;;;;;2.37;1.93;;;;;;;19.66;68.78;97427.16;5067033;28;20283;-66
2021/06/02 09:34:18;;;;;;;2.20;2.00;;;;;;;19.98;68.86;97481.81;5048281;28;20231;-66
2021/06/02 09:36:50;;;;;;;3.33;2.13;;;;;;;19.98;68.96;97484.38;5066002;28;20239;-66
2021/06/02 09:39:18;;;;;;;2.00;1.80;;;;;;;19.84;68.93;97462.66;5051742;28;20196;-66
2021/06/02 09:42:17;;;;;;;2.10;1.93;;;;;;;19.98;69.09;97483.53;5050896;28;20251;-65
2021/06/02 09:44:59;;;;;;;1.90;1.80;;;;;;;19.70;68.85;97438.34;5048107;28;20230;-65
2021/06/02 09:47:40;;;;;;;2.57;1.90;;;;;;;19.99;69.04;97488.69;5052636;28;20312;-66
2021/06/02 09:50:11;;;;;;;2.03;1.83;;;;;;;19.89;69.07;97464.53;5052942;28;20661;-66
2021/06/02 09:52:46;;;;;;;2.13;1.90;;;;;;;19.97;68.90;97480.09;5061517;28;20253;-65
2021/06/02 09:55:14;;;;;;;3.17;1.87;;;;;;;19.55;68.76;97407.22;5048684;28;20583;-66
2021/06/02 09:57:41;;;;;;;1.60;1.50;;;;;;;20.02;68.94;97492.19;5049328;28;20232;-66
2021/06/02 10:00:08;;;;;;;2.00;1.90;;;;;;;20.03;68.94;97485.41;5067738;28;20663;-66
2021/06/02 10:02:35;;;;;;;2.00;1.90;;;;;;;20.06;69.13;97484.63;5067903;28;20349;-66
2021/06/02 10:05:09;;;;;;;1.80;1.70;;;;;;;19.77;68.86;97433.50;5064246;28;20200;-66
2021/06/02 10:07:44;;;;;;;2.10;1.90;;;;;;;20.06;68.73;97482.97;5044705;28;20320;-66
2021/06/02 10:10:18;;;;;;;2.20;2.00;;;;;;;20.07;68.65;97486.41;5066647;28;20242;-66
2021/06/02 10:13:01;;;;;;;1.93;1.80;;;;;;;20.09;68.70;97487.28;5050126;28;20304;-66
2021/06/02 10:15:46;;;;;;;2.47;1.90;;;;;;;20.10;68.59;97487.34;5053246;28;20287;-65
2021/06/02 10:18:32;;;;;;;2.07;1.90;;;;;;;20.10;68.70;97484.78;5061166;28;20844;-65
2021/06/02 10:21:16;;;;;;;1.80;1.70;;;;;;;20.11;68.47;97494.22;5047222;28;20773;-65
2021/06/02 10:23:44;;;;;;;1.80;1.70;;;;;;;20.13;68.45;97492.59;5065648;28;20670;-65
2021/06/02 10:26:12;;;;;;;1.70;1.60;;;;;;;20.12;66.58;97492.50;5064695;28;20235;-66
2021/06/02 10:28:39;;;;;;;1.77;1.67;;;;;;;19.74;64.46;97435.06;5049949;28;20305;-65
2021/06/02 10:31:07;;;;;;;2.17;1.97;;;;;;;19.55;63.69;97410.63;5046444;28;20226;-66
2021/06/02 10:33:34;;;;;;;4.13;1.77;;;;;;;19.92;64.06;97479.94;5047808;28;20236;-66
2021/06/02 10:36:02;;;;;;;3.17;1.67;;;;;;;19.72;64.43;97452.03;5049825;28;20661;-66
2021/06/02 10:38:53;;;;;;;3.50;2.00;;;;;;;19.54;65.22;97419.06;5032973;28;20311;-66
2021/06/02 10:41:32;;;;;;;1.87;1.70;;;;;;;19.56;66.25;97421.69;5053004;28;20925;-65
2021/06/02 10:44:06;;;;;;;5.00;2.03;;;;;;;20.04;65.25;97507.53;5034319;28;20204;-65
2021/06/02 10:46:33;;;;;;;4.60;1.77;;;;;;;20.06;65.15;97505.03;5067172;28;20235;-66
2021/06/02 10:49:03;;;;;;;4.23;1.53;;;;;;;20.05;65.88;97506.75;5048515;28;20231;-65
2021/06/02 10:51:30;;;;;;;2.30;1.90;;;;;;;20.06;66.44;97507.59;5066722;28;20320;-65
2021/06/02 10:54:06;;;;;;;4.30;1.80;;;;;;;19.59;66.65;97417.56;5065861;28;20296;-66
2021/06/02 10:56:33;;;;;;;2.20;1.97;;;;;;;20.02;66.95;97493.00;5067149;28;20290;-66
2021/06/02 10:59:01;;;;;;;2.93;2.07;;;;;;;19.77;67.22;97453.03;5048390;28;20784;-64
2021/06/02 11:01:30;;;;;;;2.27;1.83;;;;;;;19.89;67.17;97468.75;5030314;28;20328;-66
2021/06/02 11:04:06;;;;;;;2.57;2.10;;;;;;;20.08;67.44;97503.44;5047426;28;20227;-66
2021/06/02 11:06:34;;;;;;;3.47;2.10;;;;;;;20.07;67.45;97499.16;5065791;28;20200;-66
2021/06/02 11:09:05;;;;;;;2.37;2.17;;;;;;;20.09;67.54;97500.06;5063735;28;20726;-66
2021/06/02 11:11:35;;;;;;;3.13;1.90;;;;;;;20.10;67.37;97500.09;5066910;28;20232;-66
2021/06/02 11:14:14;;;;;;;3.33;2.37;;;;;;;20.09;67.62;97498.38;5062659;28;20200;-66
2021/06/02 11:16:45;;;;;;;2.07;1.80;;;;;;;19.11;67.54;97321.53;5063241;28;20204;-67
2021/06/02 11:19:18;;;;;;;2.70;2.20;;;;;;;20.11;67.43;97493.31;5023190;28;20661;-66
2021/06/02 11:21:54;;;;;;;3.33;2.47;;;;;;;20.12;67.65;97495.06;5060927;28;20281;-66
2021/06/02 11:24:37;;;;;;;3.27;2.20;;;;;;;20.10;67.67;97495.00;5063755;28;20207;-66
2021/06/02 11:27:10;;;;;;;4.00;2.53;;;;;;;20.09;67.63;97500.06;5060839;28;20701;-66
2021/06/02 11:29:51;;;;;;;2.87;2.20;;;;;;;20.07;67.65;97496.59;5063022;28;20700;-66
2021/06/02 11:32:25;;;;;;;4.83;2.60;;;;;;;20.05;67.67;97499.09;5065558;28;20192;-65
2021/06/02 11:34:55;;;;;;;3.97;2.50;;;;;;;19.74;67.75;97442.72;5043661;28;20291;-66
2021/06/02 11:37:26;;;;;;;6.57;2.47;;;;;;;20.06;67.98;97494.84;5043683;28;20310;-66
2021/06/02 11:39:55;;;;;;;4.07;2.30;;;;;;;20.07;67.94;97494.91;5046631;28;20322;-66
2021/06/02 11:42:46;;;;;;;3.87;2.40;;;;;;;20.08;67.88;97490.66;5031540;28;20649;-67
2021/06/02 11:45:17;;;;;;;3.30;2.27;;;;;;;19.78;67.94;97436.94;5040074;28;20232;-65
2021/06/02 11:47:49;;;;;;;5.13;2.37;;;;;;;19.76;67.73;97434.34;5037114;28;20284;-66
2021/06/02 11:50:22;;;;;;;3.97;2.50;;;;;;;18.79;67.66;97255.84;5055211;28;20279;-67
2021/06/02 11:53:00;;;;;;;4.50;2.57;;;;;;;19.26;67.84;97336.47;5031603;28;20228;-65
2021/06/02 11:55:28;;;;;;;5.63;2.93;;;;;;;20.10;67.78;97477.13;5030727;28;20238;-66
2021/06/02 11:57:54;;;;;;;4.73;2.73;;;;;;;20.11;67.63;97480.56;5064432;28;20252;-66
2021/06/02 12:00:22;;;;;;;4.60;2.53;;;;;;;20.09;67.85;97477.97;5047369;28;20204;-66
2021/06/02 12:02:56;;;;;;;4.97;2.90;;;;;;;19.97;68.04;97464.78;5048516;28;20236;-65
2021/06/02 12:05:23;;;;;;;6.67;3.23;;;;;;;20.13;68.06;97486.63;5045294;28;20207;-67
2021/06/02 12:10:18;;;;;;;4.53;2.50;;;;;;;20.14;67.83;97496.03;5023779;28;20711;-65
2021/06/02 12:12:45;;;;;;;5.10;2.60;;;;;;;19.98;68.03;97467.41;5026061;28;20263;-67
2021/06/02 12:15:13;;;;;;;5.33;2.97;;;;;;;20.09;67.81;97488.16;5024902;28;20292;-68